sensor_id;sensor_type;location;lat;lon;timestamp;temperature;humidity
4518;DHT22;2271;49.464;11.070;2023-08-17T00:00:09;23.80;99.90
4518;DHT22;2271;49.464;11.070;2023-08-17T00:02:35;23.70;99.90
4518;DHT22;2271;49.464;11.070;2023-08-17T00:05:01;23.70;99.90
4518;DHT22;2271;49.464;11.070;2023-08-17T00:07:27;23.70;99.90
4518;DHT22;2271;49.464;11.070;2023-08-17T00:09:53;23.70;99.90
4518;DHT22;2271;49.464;11.070;2023-08-17T00:12:18;23.70;99.90
4518;DHT22;2271;49.464;11.070;2023-08-17T00:14:44;23.80;99.90
4518;DHT22;2271;49.464;11.070;2023-08-17T00:17:10;23.80;99.90
4518;DHT22;2271;49.464;11.070;2023-08-17T00:19:39;23.70;99.90
4518;DHT22;2271;49.464;11.070;2023-08-17T00:22:04;23.60;99.90
4518;DHT22;2271;49.464;11.070;2023-08-17T00:24:30;23.70;99.90
4518;DHT22;2271;49.464;11.070;2023-08-17T00:26:56;23.70;99.90
4518;DHT22;2271;49.464;11.070;2023-08-17T00:29:21;23.70;99.90
4518;DHT22;2271;49.464;11.070;2023-08-17T00:31:47;23.70;99.90
4518;DHT22;2271;49.464;11.070;2023-08-17T00:34:13;23.70;99.90
4518;DHT22;2271;49.464;11.070;2023-08-17T00:36:39;23.70;99.90
4518;DHT22;2271;49.464;11.070;2023-08-17T00:39:05;23.60;99.90
4518;DHT22;2271;49.464;11.070;2023-08-17T00:41:30;23.70;99.90
4518;DHT22;2271;49.464;11.070;2023-08-17T00:43:56;23.80;99.90
4518;DHT22;2271;49.464;11.070;2023-08-17T00:46:23;23.80;99.90
4518;DHT22;2271;49.464;11.070;2023-08-17T00:48:49;23.80;99.90
4518;DHT22;2271;49.464;11.070;2023-08-17T00:51:15;23.80;99.90
4518;DHT22;2271;49.464;11.070;2023-08-17T00:53:41;23.80;99.90
4518;DHT22;2271;49.464;11.070;2023-08-17T00:56:07;23.90;99.90
4518;DHT22;2271;49.464;11.070;2023-08-17T00:58:34;23.90;99.90
4518;DHT22;2271;49.464;11.070;2023-08-17T01:01:00;23.90;99.90
4518;DHT22;2271;49.464;11.070;2023-08-17T01:03:28;23.90;99.90
4518;DHT22;2271;49.464;11.070;2023-08-17T01:05:56;24.00;99.90
4518;DHT22;2271;49.464;11.070;2023-08-17T01:08:22;23.90;99.90
4518;DHT22;2271;49.464;11.070;2023-08-17T01:14:09;23.90;99.90
4518;DHT22;2271;49.464;11.070;2023-08-17T01:16:42;23.70;99.90
4518;DHT22;2271;49.464;11.070;2023-08-17T01:19:13;23.60;99.90
4518;DHT22;2271;49.464;11.070;2023-08-17T01:21:50;23.60;99.90
4518;DHT22;2271;49.464;11.070;2023-08-17T01:24:18;23.70;99.90
4518;DHT22;2271;49.464;11.070;2023-08-17T01:26:43;23.70;99.90
4518;DHT22;2271;49.464;11.070;2023-08-17T01:29:09;23.70;99.90
4518;DHT22;2271;49.464;11.070;2023-08-17T01:32:26;23.60;99.90
4518;DHT22;2271;49.464;11.070;2023-08-17T01:37:50;23.40;99.90
4518;DHT22;2271;49.464;11.070;2023-08-17T01:40:17;23.30;99.90
4518;DHT22;2271;49.464;11.070;2023-08-17T01:42:43;23.30;99.90
4518;DHT22;2271;49.464;11.070;2023-08-17T01:45:09;23.30;99.90
4518;DHT22;2271;49.464;11.070;2023-08-17T01:47:36;23.30;99.90
4518;DHT22;2271;49.464;11.070;2023-08-17T01:50:01;23.20;99.90
4518;DHT22;2271;49.464;11.070;2023-08-17T01:52:28;23.20;99.90
4518;DHT22;2271;49.464;11.070;2023-08-17T01:54:54;23.10;99.90
4518;DHT22;2271;49.464;11.070;2023-08-17T01:57:20;23.20;99.90
4518;DHT22;2271;49.464;11.070;2023-08-17T01:59:45;23.20;99.90
4518;DHT22;2271;49.464;11.070;2023-08-17T02:02:11;23.20;99.90
4518;DHT22;2271;49.464;11.070;2023-08-17T02:04:40;23.20;99.90
4518;DHT22;2271;49.464;11.070;2023-08-17T02:07:06;23.20;99.90
4518;DHT22;2271;49.464;11.070;2023-08-17T02:09:31;23.20;99.90
4518;DHT22;2271;49.464;11.070;2023-08-17T02:11:57;23.20;99.90
4518;DHT22;2271;49.464;11.070;2023-08-17T02:14:23;23.10;99.90
4518;DHT22;2271;49.464;11.070;2023-08-17T02:16:48;23.00;99.90
4518;DHT22;2271;49.464;11.070;2023-08-17T02:19:14;22.90;99.90
4518;DHT22;2271;49.464;11.070;2023-08-17T02:21:40;22.90;99.90
4518;DHT22;2271;49.464;11.070;2023-08-17T02:24:06;22.90;99.90
4518;DHT22;2271;49.464;11.070;2023-08-17T02:26:31;22.90;99.90
4518;DHT22;2271;49.464;11.070;2023-08-17T02:28:57;23.00;99.90
4518;DHT22;2271;49.464;11.070;2023-08-17T02:31:23;23.10;99.90
4518;DHT22;2271;49.464;11.070;2023-08-17T02:33:49;23.10;99.90
4518;DHT22;2271;49.464;11.070;2023-08-17T02:36:14;23.00;99.90
4518;DHT22;2271;49.464;11.070;2023-08-17T02:38:40;23.10;99.90
4518;DHT22;2271;49.464;11.070;2023-08-17T02:41:06;23.10;99.90
4518;DHT22;2271;49.464;11.070;2023-08-17T02:43:31;23.10;99.90
4518;DHT22;2271;49.464;11.070;2023-08-17T02:45:57;23.20;99.90
4518;DHT22;2271;49.464;11.070;2023-08-17T02:48:25;23.20;99.90
4518;DHT22;2271;49.464;11.070;2023-08-17T02:50:50;23.10;99.90
4518;DHT22;2271;49.464;11.070;2023-08-17T02:53:16;23.10;99.90
4518;DHT22;2271;49.464;11.070;2023-08-17T02:55:42;23.10;99.90
4518;DHT22;2271;49.464;11.070;2023-08-17T02:58:07;23.10;99.90
4518;DHT22;2271;49.464;11.070;2023-08-17T03:00:33;23.10;99.90
4518;DHT22;2271;49.464;11.070;2023-08-17T03:02:59;23.20;99.90
4518;DHT22;2271;49.464;11.070;2023-08-17T03:05:25;23.20;99.90
4518;DHT22;2271;49.464;11.070;2023-08-17T03:07:50;23.30;99.90
4518;DHT22;2271;49.464;11.070;2023-08-17T03:10:17;23.30;99.90
4518;DHT22;2271;49.464;11.070;2023-08-17T03:12:42;23.30;99.90
4518;DHT22;2271;49.464;11.070;2023-08-17T03:15:08;23.30;99.90
4518;DHT22;2271;49.464;11.070;2023-08-17T03:17:34;23.20;99.90
4518;DHT22;2271;49.464;11.070;2023-08-17T03:20:00;23.10;99.90
4518;DHT22;2271;49.464;11.070;2023-08-17T03:22:25;23.00;99.90
4518;DHT22;2271;49.464;11.070;2023-08-17T03:24:51;23.00;99.90
4518;DHT22;2271;49.464;11.070;2023-08-17T03:27:20;22.90;99.90
4518;DHT22;2271;49.464;11.070;2023-08-17T03:29:45;23.00;99.90
4518;DHT22;2271;49.464;11.070;2023-08-17T03:32:11;23.00;99.90
4518;DHT22;2271;49.464;11.070;2023-08-17T03:34:37;23.20;99.90
4518;DHT22;2271;49.464;11.070;2023-08-17T03:37:04;23.20;99.90
4518;DHT22;2271;49.464;11.070;2023-08-17T03:39:30;23.20;99.90
4518;DHT22;2271;49.464;11.070;2023-08-17T03:41:56;23.20;99.90
4518;DHT22;2271;49.464;11.070;2023-08-17T03:44:22;23.20;99.90
4518;DHT22;2271;49.464;11.070;2023-08-17T03:46:47;23.10;99.90
4518;DHT22;2271;49.464;11.070;2023-08-17T03:49:13;22.90;99.90
4518;DHT22;2271;49.464;11.070;2023-08-17T03:51:40;23.00;99.90
4518;DHT22;2271;49.464;11.070;2023-08-17T03:54:05;23.10;99.90
4518;DHT22;2271;49.464;11.070;2023-08-17T03:56:31;23.20;99.90
4518;DHT22;2271;49.464;11.070;2023-08-17T03:58:57;23.30;99.90
4518;DHT22;2271;49.464;11.070;2023-08-17T04:01:23;23.30;99.90
4518;DHT22;2271;49.464;11.070;2023-08-17T04:03:48;23.10;99.90
4518;DHT22;2271;49.464;11.070;2023-08-17T04:06:14;23.10;99.90
4518;DHT22;2271;49.464;11.070;2023-08-17T04:08:40;23.20;99.90
4518;DHT22;2271;49.464;11.070;2023-08-17T04:11:06;23.20;99.90
4518;DHT22;2271;49.464;11.070;2023-08-17T04:13:32;23.30;99.90
4518;DHT22;2271;49.464;11.070;2023-08-17T04:15:58;23.50;99.90
4518;DHT22;2271;49.464;11.070;2023-08-17T04:18:23;23.60;99.90
4518;DHT22;2271;49.464;11.070;2023-08-17T04:20:49;23.60;99.90
4518;DHT22;2271;49.464;11.070;2023-08-17T04:23:15;23.60;99.90
4518;DHT22;2271;49.464;11.070;2023-08-17T04:25:43;23.50;99.90
4518;DHT22;2271;49.464;11.070;2023-08-17T04:28:09;23.50;99.90
4518;DHT22;2271;49.464;11.070;2023-08-17T04:30:34;23.50;99.90
4518;DHT22;2271;49.464;11.070;2023-08-17T04:33:00;23.20;99.90
4518;DHT22;2271;49.464;11.070;2023-08-17T04:35:26;23.00;99.90
4518;DHT22;2271;49.464;11.070;2023-08-17T04:37:52;22.90;99.90
4518;DHT22;2271;49.464;11.070;2023-08-17T04:40:18;22.80;99.90
4518;DHT22;2271;49.464;11.070;2023-08-17T04:42:43;22.70;99.90
4518;DHT22;2271;49.464;11.070;2023-08-17T04:45:09;22.60;99.90
4518;DHT22;2271;49.464;11.070;2023-08-17T04:47:35;22.60;99.90
4518;DHT22;2271;49.464;11.070;2023-08-17T04:50:04;22.60;99.90
4518;DHT22;2271;49.464;11.070;2023-08-17T04:52:30;22.60;99.90
4518;DHT22;2271;49.464;11.070;2023-08-17T04:54:55;22.60;99.90
4518;DHT22;2271;49.464;11.070;2023-08-17T04:57:21;22.60;99.90
4518;DHT22;2271;49.464;11.070;2023-08-17T04:59:47;22.60;99.90
4518;DHT22;2271;49.464;11.070;2023-08-17T05:02:13;22.60;99.90
4518;DHT22;2271;49.464;11.070;2023-08-17T05:04:38;22.60;99.90
4518;DHT22;2271;49.464;11.070;2023-08-17T05:07:05;22.60;99.90
4518;DHT22;2271;49.464;11.070;2023-08-17T05:09:31;22.60;99.90
4518;DHT22;2271;49.464;11.070;2023-08-17T05:11:57;22.60;99.90
4518;DHT22;2271;49.464;11.070;2023-08-17T05:14:22;22.60;99.90
4518;DHT22;2271;49.464;11.070;2023-08-17T05:16:48;22.70;99.90
4518;DHT22;2271;49.464;11.070;2023-08-17T05:19:14;22.60;99.90
4518;DHT22;2271;49.464;11.070;2023-08-17T05:21:39;22.60;99.90
4518;DHT22;2271;49.464;11.070;2023-08-17T05:24:05;22.60;99.90
4518;DHT22;2271;49.464;11.070;2023-08-17T05:26:32;22.60;99.90
4518;DHT22;2271;49.464;11.070;2023-08-17T05:28:57;22.70;99.90
4518;DHT22;2271;49.464;11.070;2023-08-17T05:31:23;22.70;99.90
4518;DHT22;2271;49.464;11.070;2023-08-17T05:33:49;22.80;99.90
4518;DHT22;2271;49.464;11.070;2023-08-17T05:36:15;22.80;99.90
4518;DHT22;2271;49.464;11.070;2023-08-17T05:38:40;22.80;99.90
4518;DHT22;2271;49.464;11.070;2023-08-17T05:41:06;23.00;99.90
4518;DHT22;2271;49.464;11.070;2023-08-17T05:43:32;23.20;99.90
4518;DHT22;2271;49.464;11.070;2023-08-17T05:45:58;23.40;99.90
4518;DHT22;2271;49.464;11.070;2023-08-17T05:48:25;23.60;99.90
4518;DHT22;2271;49.464;11.070;2023-08-17T05:50:50;23.90;99.90
4518;DHT22;2271;49.464;11.070;2023-08-17T05:53:16;24.20;99.90
4518;DHT22;2271;49.464;11.070;2023-08-17T05:55:42;24.20;99.90
4518;DHT22;2271;49.464;11.070;2023-08-17T05:58:07;24.40;99.90
4518;DHT22;2271;49.464;11.070;2023-08-17T06:00:33;24.50;99.90
4518;DHT22;2271;49.464;11.070;2023-08-17T06:02:59;24.70;99.90
4518;DHT22;2271;49.464;11.070;2023-08-17T06:05:28;24.80;99.90
4518;DHT22;2271;49.464;11.070;2023-08-17T06:07:55;24.90;99.90
4518;DHT22;2271;49.464;11.070;2023-08-17T06:10:21;24.90;99.90
4518;DHT22;2271;49.464;11.070;2023-08-17T06:12:52;25.00;99.90
4518;DHT22;2271;49.464;11.070;2023-08-17T06:15:17;25.10;99.90
4518;DHT22;2271;49.464;11.070;2023-08-17T06:17:43;25.20;99.90
4518;DHT22;2271;49.464;11.070;2023-08-17T06:20:09;25.40;99.90
4518;DHT22;2271;49.464;11.070;2023-08-17T06:22:35;25.50;99.90
4518;DHT22;2271;49.464;11.070;2023-08-17T06:25:01;25.70;99.90
4518;DHT22;2271;49.464;11.070;2023-08-17T06:27:27;25.90;99.90
4518;DHT22;2271;49.464;11.070;2023-08-17T06:29:52;25.90;99.90
4518;DHT22;2271;49.464;11.070;2023-08-17T06:32:18;26.00;99.90
4518;DHT22;2271;49.464;11.070;2023-08-17T06:34:44;26.00;99.90
4518;DHT22;2271;49.464;11.070;2023-08-17T06:37:09;26.00;99.90
4518;DHT22;2271;49.464;11.070;2023-08-17T06:39:35;26.20;99.90
4518;DHT22;2271;49.464;11.070;2023-08-17T06:42:01;26.30;99.90
4518;DHT22;2271;49.464;11.070;2023-08-17T06:44:26;26.50;99.90
4518;DHT22;2271;49.464;11.070;2023-08-17T06:46:52;26.70;99.90
4518;DHT22;2271;49.464;11.070;2023-08-17T06:49:18;26.70;99.90
4518;DHT22;2271;49.464;11.070;2023-08-17T06:51:43;26.90;99.90
4518;DHT22;2271;49.464;11.070;2023-08-17T06:54:09;26.90;99.90
4518;DHT22;2271;49.464;11.070;2023-08-17T06:56:35;26.80;99.90
4518;DHT22;2271;49.464;11.070;2023-08-17T06:59:00;27.10;99.90
4518;DHT22;2271;49.464;11.070;2023-08-17T07:01:26;27.20;99.90
4518;DHT22;2271;49.464;11.070;2023-08-17T07:03:52;27.30;99.90
4518;DHT22;2271;49.464;11.070;2023-08-17T07:06:18;27.60;99.90
4518;DHT22;2271;49.464;11.070;2023-08-17T07:08:43;27.60;99.90
4518;DHT22;2271;49.464;11.070;2023-08-17T07:11:09;27.70;99.90
4518;DHT22;2271;49.464;11.070;2023-08-17T07:13:35;27.80;99.90
4518;DHT22;2271;49.464;11.070;2023-08-17T07:16:00;28.00;99.90
4518;DHT22;2271;49.464;11.070;2023-08-17T07:18:26;28.00;99.90
4518;DHT22;2271;49.464;11.070;2023-08-17T07:20:52;27.90;99.90
4518;DHT22;2271;49.464;11.070;2023-08-17T07:23:17;28.00;99.90
4518;DHT22;2271;49.464;11.070;2023-08-17T07:25:43;28.10;99.90
4518;DHT22;2271;49.464;11.070;2023-08-17T07:28:09;28.40;99.90
4518;DHT22;2271;49.464;11.070;2023-08-17T07:30:35;28.40;99.90
4518;DHT22;2271;49.464;11.070;2023-08-17T07:33:01;28.60;99.90
4518;DHT22;2271;49.464;11.070;2023-08-17T07:35:26;28.70;99.90
4518;DHT22;2271;49.464;11.070;2023-08-17T07:37:52;28.80;99.90
4518;DHT22;2271;49.464;11.070;2023-08-17T07:40:18;28.80;99.90
4518;DHT22;2271;49.464;11.070;2023-08-17T07:42:45;28.90;99.90
4518;DHT22;2271;49.464;11.070;2023-08-17T07:45:13;29.00;99.90
4518;DHT22;2271;49.464;11.070;2023-08-17T07:47:39;29.10;99.90
4518;DHT22;2271;49.464;11.070;2023-08-17T07:50:05;29.30;99.90
4518;DHT22;2271;49.464;11.070;2023-08-17T07:52:31;29.40;99.90
4518;DHT22;2271;49.464;11.070;2023-08-17T07:54:56;29.60;99.90
4518;DHT22;2271;49.464;11.070;2023-08-17T07:57:22;29.50;99.90
4518;DHT22;2271;49.464;11.070;2023-08-17T07:59:48;29.40;99.90
4518;DHT22;2271;49.464;11.070;2023-08-17T08:02:13;29.40;99.90
4518;DHT22;2271;49.464;11.070;2023-08-17T08:04:39;29.40;99.90
4518;DHT22;2271;49.464;11.070;2023-08-17T08:07:05;29.20;99.90
4518;DHT22;2271;49.464;11.070;2023-08-17T08:09:31;29.10;99.90
4518;DHT22;2271;49.464;11.070;2023-08-17T08:11:57;29.00;99.90
4518;DHT22;2271;49.464;11.070;2023-08-17T08:14:22;29.00;99.90
4518;DHT22;2271;49.464;11.070;2023-08-17T08:16:48;29.20;99.90
4518;DHT22;2271;49.464;11.070;2023-08-17T08:19:14;29.40;99.90
4518;DHT22;2271;49.464;11.070;2023-08-17T08:21:39;29.30;99.90
4518;DHT22;2271;49.464;11.070;2023-08-17T08:24:05;29.60;99.90
4518;DHT22;2271;49.464;11.070;2023-08-17T08:26:31;29.80;99.90
4518;DHT22;2271;49.464;11.070;2023-08-17T08:28:57;29.90;99.90
4518;DHT22;2271;49.464;11.070;2023-08-17T08:31:22;30.00;99.90
4518;DHT22;2271;49.464;11.070;2023-08-17T08:33:48;30.10;99.90
4518;DHT22;2271;49.464;11.070;2023-08-17T08:36:13;30.00;99.90
4518;DHT22;2271;49.464;11.070;2023-08-17T08:38:39;29.90;99.90
4518;DHT22;2271;49.464;11.070;2023-08-17T08:41:05;29.80;99.90
4518;DHT22;2271;49.464;11.070;2023-08-17T08:43:34;30.00;99.90
4518;DHT22;2271;49.464;11.070;2023-08-17T08:46:00;30.20;99.90
4518;DHT22;2271;49.464;11.070;2023-08-17T08:48:26;30.20;99.90
4518;DHT22;2271;49.464;11.070;2023-08-17T08:50:55;30.20;99.90
4518;DHT22;2271;49.464;11.070;2023-08-17T08:53:27;30.20;99.90
4518;DHT22;2271;49.464;11.070;2023-08-17T08:55:58;30.30;99.90
4518;DHT22;2271;49.464;11.070;2023-08-17T08:58:29;30.30;99.90
4518;DHT22;2271;49.464;11.070;2023-08-17T09:00:57;30.20;99.90
4518;DHT22;2271;49.464;11.070;2023-08-17T09:03:25;30.30;99.90
4518;DHT22;2271;49.464;11.070;2023-08-17T09:05:51;30.40;99.90
4518;DHT22;2271;49.464;11.070;2023-08-17T09:08:21;30.40;99.90
4518;DHT22;2271;49.464;11.070;2023-08-17T09:10:49;30.20;99.90
4518;DHT22;2271;49.464;11.070;2023-08-17T09:13:15;30.20;99.90
4518;DHT22;2271;49.464;11.070;2023-08-17T09:15:41;30.40;99.90
4518;DHT22;2271;49.464;11.070;2023-08-17T09:18:06;30.40;99.90
4518;DHT22;2271;49.464;11.070;2023-08-17T09:20:41;30.50;99.90
4518;DHT22;2271;49.464;11.070;2023-08-17T09:23:18;30.50;99.90
4518;DHT22;2271;49.464;11.070;2023-08-17T09:25:48;30.50;99.90
4518;DHT22;2271;49.464;11.070;2023-08-17T09:28:16;30.30;99.90
4518;DHT22;2271;49.464;11.070;2023-08-17T09:31:08;30.50;99.90
4518;DHT22;2271;49.464;11.070;2023-08-17T09:33:34;30.60;99.90
4518;DHT22;2271;49.464;11.070;2023-08-17T09:36:00;30.60;99.90
4518;DHT22;2271;49.464;11.070;2023-08-17T09:38:27;30.80;99.90
4518;DHT22;2271;49.464;11.070;2023-08-17T09:40:53;31.10;99.90
4518;DHT22;2271;49.464;11.070;2023-08-17T09:43:19;31.30;99.90
4518;DHT22;2271;49.464;11.070;2023-08-17T09:45:47;31.40;99.90
4518;DHT22;2271;49.464;11.070;2023-08-17T09:48:19;31.30;99.90
4518;DHT22;2271;49.464;11.070;2023-08-17T09:50:46;31.10;99.90
4518;DHT22;2271;49.464;11.070;2023-08-17T09:53:16;31.00;99.90
4518;DHT22;2271;49.464;11.070;2023-08-17T09:55:46;30.90;99.90
4518;DHT22;2271;49.464;11.070;2023-08-17T09:58:13;31.10;99.90
4518;DHT22;2271;49.464;11.070;2023-08-17T10:00:47;31.10;99.90
4518;DHT22;2271;49.464;11.070;2023-08-17T10:03:14;31.10;99.90
4518;DHT22;2271;49.464;11.070;2023-08-17T10:05:42;31.30;99.90
4518;DHT22;2271;49.464;11.070;2023-08-17T10:08:10;31.40;99.90
4518;DHT22;2271;49.464;11.070;2023-08-17T10:10:40;31.40;99.90
4518;DHT22;2271;49.464;11.070;2023-08-17T10:13:57;31.60;99.90
4518;DHT22;2271;49.464;11.070;2023-08-17T10:16:23;31.60;99.90
4518;DHT22;2271;49.464;11.070;2023-08-17T10:21:28;31.70;99.90
4518;DHT22;2271;49.464;11.070;2023-08-17T10:23:55;31.80;99.90
4518;DHT22;2271;49.464;11.070;2023-08-17T10:26:23;31.50;99.90
4518;DHT22;2271;49.464;11.070;2023-08-17T10:28:50;31.40;99.90
4518;DHT22;2271;49.464;11.070;2023-08-17T10:31:17;31.30;99.90
4518;DHT22;2271;49.464;11.070;2023-08-17T10:33:44;31.30;99.90
4518;DHT22;2271;49.464;11.070;2023-08-17T10:36:12;31.30;99.90
4518;DHT22;2271;49.464;11.070;2023-08-17T10:38:38;31.50;99.90
4518;DHT22;2271;49.464;11.070;2023-08-17T10:43:34;31.30;99.90
4518;DHT22;2271;49.464;11.070;2023-08-17T10:46:20;31.40;99.90
4518;DHT22;2271;49.464;11.070;2023-08-17T10:48:46;31.40;99.90
4518;DHT22;2271;49.464;11.070;2023-08-17T10:51:11;31.50;99.90
4518;DHT22;2271;49.464;11.070;2023-08-17T10:53:40;31.70;99.90
4518;DHT22;2271;49.464;11.070;2023-08-17T10:56:12;31.90;99.90
4518;DHT22;2271;49.464;11.070;2023-08-17T10:58:38;32.00;99.90
4518;DHT22;2271;49.464;11.070;2023-08-17T11:01:04;31.90;99.90
4518;DHT22;2271;49.464;11.070;2023-08-17T11:03:30;32.00;99.90
4518;DHT22;2271;49.464;11.070;2023-08-17T11:05:56;32.10;99.90
4518;DHT22;2271;49.464;11.070;2023-08-17T11:13:28;32.20;99.90
4518;DHT22;2271;49.464;11.070;2023-08-17T11:15:57;32.10;99.90
4518;DHT22;2271;49.464;11.070;2023-08-17T11:18:22;31.80;99.90
4518;DHT22;2271;49.464;11.070;2023-08-17T11:20:50;31.80;99.90
4518;DHT22;2271;49.464;11.070;2023-08-17T11:23:16;32.00;99.90
4518;DHT22;2271;49.464;11.070;2023-08-17T11:25:42;32.20;99.90
4518;DHT22;2271;49.464;11.070;2023-08-17T11:28:08;32.30;99.90
4518;DHT22;2271;49.464;11.070;2023-08-17T11:30:35;32.30;99.90
4518;DHT22;2271;49.464;11.070;2023-08-17T11:33:03;32.20;99.90
4518;DHT22;2271;49.464;11.070;2023-08-17T11:35:29;32.20;99.90
4518;DHT22;2271;49.464;11.070;2023-08-17T11:37:54;32.40;99.90
4518;DHT22;2271;49.464;11.070;2023-08-17T11:40:20;32.50;99.90
4518;DHT22;2271;49.464;11.070;2023-08-17T11:42:46;32.40;99.90
4518;DHT22;2271;49.464;11.070;2023-08-17T11:45:13;32.30;99.90
4518;DHT22;2271;49.464;11.070;2023-08-17T11:47:40;32.00;99.90
4518;DHT22;2271;49.464;11.070;2023-08-17T11:50:08;31.70;99.90
4518;DHT22;2271;49.464;11.070;2023-08-17T11:52:35;31.60;99.90
4518;DHT22;2271;49.464;11.070;2023-08-17T11:55:08;31.60;99.90
4518;DHT22;2271;49.464;11.070;2023-08-17T11:57:37;31.60;99.90
4518;DHT22;2271;49.464;11.070;2023-08-17T12:00:05;31.60;99.90
4518;DHT22;2271;49.464;11.070;2023-08-17T12:02:38;31.40;99.90
4518;DHT22;2271;49.464;11.070;2023-08-17T12:05:08;31.20;99.90
4518;DHT22;2271;49.464;11.070;2023-08-17T12:07:35;31.30;99.90
4518;DHT22;2271;49.464;11.070;2023-08-17T12:10:03;31.60;99.90
4518;DHT22;2271;49.464;11.070;2023-08-17T12:12:29;31.60;99.90
4518;DHT22;2271;49.464;11.070;2023-08-17T12:14:54;31.70;99.90
4518;DHT22;2271;49.464;11.070;2023-08-17T12:17:21;31.50;99.90
4518;DHT22;2271;49.464;11.070;2023-08-17T12:19:54;31.30;99.90
4518;DHT22;2271;49.464;11.070;2023-08-17T12:22:23;31.10;99.90
4518;DHT22;2271;49.464;11.070;2023-08-17T12:24:50;30.90;99.90
4518;DHT22;2271;49.464;11.070;2023-08-17T12:27:15;30.70;99.90
4518;DHT22;2271;49.464;11.070;2023-08-17T12:29:51;30.70;99.90
4518;DHT22;2271;49.464;11.070;2023-08-17T12:32:18;30.90;99.90
4518;DHT22;2271;49.464;11.070;2023-08-17T12:34:45;31.30;99.90
4518;DHT22;2271;49.464;11.070;2023-08-17T12:37:11;31.50;99.90
4518;DHT22;2271;49.464;11.070;2023-08-17T12:39:38;31.70;99.90
4518;DHT22;2271;49.464;11.070;2023-08-17T12:42:04;31.90;99.90
4518;DHT22;2271;49.464;11.070;2023-08-17T12:44:31;32.00;99.90
4518;DHT22;2271;49.464;11.070;2023-08-17T12:46:56;32.10;99.90
4518;DHT22;2271;49.464;11.070;2023-08-17T12:49:23;31.80;99.90
4518;DHT22;2271;49.464;11.070;2023-08-17T12:51:48;31.40;99.90
4518;DHT22;2271;49.464;11.070;2023-08-17T12:54:14;31.10;99.90
4518;DHT22;2271;49.464;11.070;2023-08-17T12:56:40;30.90;99.90
4518;DHT22;2271;49.464;11.070;2023-08-17T12:59:06;30.80;99.90
4518;DHT22;2271;49.464;11.070;2023-08-17T13:01:33;30.60;99.90
4518;DHT22;2271;49.464;11.070;2023-08-17T13:03:58;30.60;99.90
4518;DHT22;2271;49.464;11.070;2023-08-17T13:06:24;30.50;99.90
4518;DHT22;2271;49.464;11.070;2023-08-17T13:08:50;30.50;99.90
4518;DHT22;2271;49.464;11.070;2023-08-17T13:11:15;30.50;99.90
4518;DHT22;2271;49.464;11.070;2023-08-17T13:13:41;30.40;99.90
4518;DHT22;2271;49.464;11.070;2023-08-17T13:16:07;30.40;99.90
4518;DHT22;2271;49.464;11.070;2023-08-17T13:18:32;30.40;99.90
4518;DHT22;2271;49.464;11.070;2023-08-17T13:20:58;30.40;99.90
4518;DHT22;2271;49.464;11.070;2023-08-17T13:23:24;30.40;99.90
4518;DHT22;2271;49.464;11.070;2023-08-17T13:25:49;30.30;99.90
4518;DHT22;2271;49.464;11.070;2023-08-17T13:28:15;30.30;99.90
4518;DHT22;2271;49.464;11.070;2023-08-17T13:30:41;30.30;99.90
4518;DHT22;2271;49.464;11.070;2023-08-17T13:33:06;30.50;99.90
4518;DHT22;2271;49.464;11.070;2023-08-17T13:35:33;30.60;99.90
4518;DHT22;2271;49.464;11.070;2023-08-17T13:37:59;30.60;99.90
4518;DHT22;2271;49.464;11.070;2023-08-17T13:40:25;30.60;99.90
4518;DHT22;2271;49.464;11.070;2023-08-17T13:42:50;30.60;99.90
4518;DHT22;2271;49.464;11.070;2023-08-17T13:45:16;30.50;99.90
4518;DHT22;2271;49.464;11.070;2023-08-17T13:47:42;30.50;99.90
4518;DHT22;2271;49.464;11.070;2023-08-17T13:50:08;30.60;99.90
4518;DHT22;2271;49.464;11.070;2023-08-17T13:52:33;30.90;99.90
4518;DHT22;2271;49.464;11.070;2023-08-17T13:54:59;31.20;99.90
4518;DHT22;2271;49.464;11.070;2023-08-17T13:57:25;31.40;99.90
4518;DHT22;2271;49.464;11.070;2023-08-17T13:59:51;31.50;99.90
4518;DHT22;2271;49.464;11.070;2023-08-17T14:02:18;31.50;99.90
4518;DHT22;2271;49.464;11.070;2023-08-17T14:04:43;31.40;99.90
4518;DHT22;2271;49.464;11.070;2023-08-17T14:07:09;31.30;99.90
4518;DHT22;2271;49.464;11.070;2023-08-17T14:09:35;31.10;99.90
4518;DHT22;2271;49.464;11.070;2023-08-17T14:12:00;31.00;99.90
4518;DHT22;2271;49.464;11.070;2023-08-17T14:14:27;30.90;99.90
4518;DHT22;2271;49.464;11.070;2023-08-17T14:16:52;30.90;99.90
4518;DHT22;2271;49.464;11.070;2023-08-17T14:19:18;30.90;99.90
4518;DHT22;2271;49.464;11.070;2023-08-17T14:21:44;31.00;99.90
4518;DHT22;2271;49.464;11.070;2023-08-17T14:24:09;31.00;99.90
4518;DHT22;2271;49.464;11.070;2023-08-17T14:26:36;31.00;99.90
4518;DHT22;2271;49.464;11.070;2023-08-17T14:29:01;30.90;99.90
4518;DHT22;2271;49.464;11.070;2023-08-17T14:31:27;30.90;99.90
4518;DHT22;2271;49.464;11.070;2023-08-17T14:33:54;30.90;99.90
4518;DHT22;2271;49.464;11.070;2023-08-17T14:36:19;31.00;99.90
4518;DHT22;2271;49.464;11.070;2023-08-17T14:38:45;31.00;99.90
4518;DHT22;2271;49.464;11.070;2023-08-17T14:41:11;30.90;99.90
4518;DHT22;2271;49.464;11.070;2023-08-17T14:43:37;30.80;99.90
4518;DHT22;2271;49.464;11.070;2023-08-17T14:46:03;30.70;99.90
4518;DHT22;2271;49.464;11.070;2023-08-17T14:48:29;30.60;99.90
4518;DHT22;2271;49.464;11.070;2023-08-17T14:50:54;30.50;99.90
4518;DHT22;2271;49.464;11.070;2023-08-17T14:53:21;30.40;99.90
4518;DHT22;2271;49.464;11.070;2023-08-17T14:55:46;30.40;99.90
4518;DHT22;2271;49.464;11.070;2023-08-17T14:58:12;30.30;99.90
4518;DHT22;2271;49.464;11.070;2023-08-17T15:00:39;30.20;99.90
4518;DHT22;2271;49.464;11.070;2023-08-17T15:03:05;30.20;99.90
4518;DHT22;2271;49.464;11.070;2023-08-17T15:05:30;30.10;99.90
4518;DHT22;2271;49.464;11.070;2023-08-17T15:07:56;30.00;99.90
4518;DHT22;2271;49.464;11.070;2023-08-17T15:10:22;29.90;99.90
4518;DHT22;2271;49.464;11.070;2023-08-17T15:12:48;29.90;99.90
4518;DHT22;2271;49.464;11.070;2023-08-17T15:15:14;29.80;99.90
4518;DHT22;2271;49.464;11.070;2023-08-17T15:17:40;29.70;99.90
4518;DHT22;2271;49.464;11.070;2023-08-17T15:20:06;29.60;99.90
4518;DHT22;2271;49.464;11.070;2023-08-17T15:22:32;29.60;99.90
4518;DHT22;2271;49.464;11.070;2023-08-17T15:24:58;29.50;99.90
4518;DHT22;2271;49.464;11.070;2023-08-17T15:27:23;29.50;99.90
4518;DHT22;2271;49.464;11.070;2023-08-17T15:29:49;29.50;99.90
4518;DHT22;2271;49.464;11.070;2023-08-17T15:32:14;29.50;99.90
4518;DHT22;2271;49.464;11.070;2023-08-17T15:34:40;29.50;99.90
4518;DHT22;2271;49.464;11.070;2023-08-17T15:37:06;29.50;99.90
4518;DHT22;2271;49.464;11.070;2023-08-17T15:39:32;29.10;99.90
4518;DHT22;2271;49.464;11.070;2023-08-17T15:41:58;27.80;99.90
4518;DHT22;2271;49.464;11.070;2023-08-17T15:44:24;25.80;99.90
4518;DHT22;2271;49.464;11.070;2023-08-17T15:46:50;24.90;99.90
4518;DHT22;2271;49.464;11.070;2023-08-17T15:49:15;24.60;99.90
4518;DHT22;2271;49.464;11.070;2023-08-17T15:51:41;24.60;99.90
4518;DHT22;2271;49.464;11.070;2023-08-17T15:54:07;24.60;99.90
4518;DHT22;2271;49.464;11.070;2023-08-17T15:56:33;24.70;99.90